createdAt,value
2022-11-04T00:00:02.590Z,32.48
2022-11-04T00:01:06.686Z,32.41
2022-11-04T00:02:08.601Z,32.07
2022-11-04T00:03:10.658Z,32.01
2022-11-04T00:04:14.446Z,32.69
2022-11-04T00:05:16.148Z,31.83
2022-11-04T00:06:17.894Z,32.32
2022-11-04T00:07:38.346Z,32.60
2022-11-04T00:08:40.237Z,31.90
2022-11-04T00:09:41.977Z,32.22
2022-11-04T00:11:02.287Z,32.76
2022-11-04T00:12:22.697Z,32.17
2022-11-04T00:13:24.356Z,32.36
2022-11-04T00:14:28.060Z,31.92
2022-11-04T00:15:48.321Z,32.50
2022-11-04T00:17:08.464Z,32.09
2022-11-04T00:18:10.272Z,32.65
2022-11-04T00:19:12.068Z,32.35
2022-11-04T00:20:32.174Z,32.20
2022-11-04T00:21:52.379Z,31.89
2022-11-04T00:23:12.519Z,32.38
2022-11-04T00:24:33.417Z,32.37
2022-11-04T00:25:53.654Z,32.41
2022-11-04T00:27:14.058Z,32.20
2022-11-04T00:28:38.429Z,31.92
2022-11-04T00:29:40.162Z,31.93
2022-11-04T00:30:41.861Z,32.42
2022-11-04T00:32:02.140Z,32.22
2022-11-04T00:33:22.330Z,31.98
2022-11-04T00:34:24.068Z,32.44
2022-11-04T00:35:25.784Z,32.21
2022-11-04T00:36:27.565Z,32.58
2022-11-04T00:37:29.347Z,32.76
2022-11-04T00:38:31.067Z,32.13
2022-11-04T00:39:32.833Z,32.85
2022-11-04T00:40:34.526Z,32.66
2022-11-04T00:41:36.200Z,33.02
2022-11-04T00:42:38.333Z,32.85
2022-11-04T00:43:39.999Z,33.11
2022-11-04T00:44:41.685Z,32.23
2022-11-04T00:45:43.741Z,32.76
2022-11-04T00:46:45.504Z,32.79
2022-11-04T00:47:47.257Z,32.99
2022-11-04T00:48:49.413Z,32.88
2022-11-04T00:49:51.421Z,32.52
2022-11-04T00:50:53.217Z,32.82
2022-11-04T00:51:55.104Z,32.84
2022-11-04T00:53:01.000Z,32.89
2022-11-04T00:54:03.075Z,33.13
2022-11-04T00:55:05.293Z,32.37
2022-11-04T00:56:07.080Z,32.79
2022-11-04T00:57:15.400Z,32.76
2022-11-04T00:58:17.118Z,32.51
2022-11-04T00:59:18.818Z,32.96
2022-11-04T01:00:20.520Z,32.43
2022-11-04T01:01:22.487Z,33.08
2022-11-04T01:02:26.351Z,32.31
2022-11-04T01:03:28.340Z,32.33
2022-11-04T01:04:30.372Z,32.58
2022-11-04T01:05:32.085Z,32.73
2022-11-04T01:06:33.837Z,32.80
2022-11-04T01:07:39.658Z,32.63
2022-11-04T01:08:44.667Z,32.29
2022-11-04T01:09:46.509Z,32.50
2022-11-04T01:10:48.201Z,33.19
2022-11-04T01:11:49.907Z,33.06
2022-11-04T01:12:53.070Z,32.38
2022-11-04T01:13:55.125Z,32.46
2022-11-04T01:14:56.849Z,32.51
2022-11-04T01:16:03.377Z,32.73
2022-11-04T01:17:05.084Z,32.47
2022-11-04T01:18:07.277Z,33.19
2022-11-04T01:19:09.992Z,33.04
2022-11-04T01:20:13.792Z,32.96
2022-11-04T01:21:17.316Z,32.57
2022-11-04T01:22:19.286Z,32.78
2022-11-04T01:23:21.251Z,32.78
2022-11-04T01:24:22.950Z,33.16
2022-11-04T01:25:24.664Z,32.71
2022-11-04T01:26:27.674Z,32.80
2022-11-04T01:27:29.374Z,32.65
2022-11-04T01:28:31.231Z,32.66
2022-11-04T01:29:32.893Z,32.55
2022-11-04T01:30:34.616Z,32.40
2022-11-04T01:31:36.605Z,33.08
2022-11-04T01:32:38.445Z,32.70
2022-11-04T01:33:40.236Z,33.02
2022-11-04T01:34:43.566Z,32.84
2022-11-04T01:35:45.527Z,33.10
2022-11-04T01:36:47.234Z,33.28
2022-11-04T01:37:48.921Z,32.65
2022-11-04T01:38:50.717Z,32.93
2022-11-04T01:39:52.407Z,32.83
2022-11-04T01:40:54.146Z,32.77
2022-11-04T01:41:55.854Z,33.21
2022-11-04T01:42:57.558Z,33.30
2022-11-04T01:44:02.202Z,33.00
2022-11-04T01:45:04.086Z,33.15
2022-11-04T01:46:05.954Z,32.99
2022-11-04T01:47:18.846Z,32.51
2022-11-04T01:48:30.200Z,33.09
2022-11-04T01:49:43.339Z,32.73
2022-11-04T01:50:45.569Z,32.82
2022-11-04T01:51:49.716Z,32.55
2022-11-04T01:53:07.267Z,32.50
2022-11-04T01:54:11.460Z,33.19
2022-11-04T01:55:19.237Z,33.15
2022-11-04T01:56:21.368Z,32.47
2022-11-04T01:57:36.111Z,32.36
2022-11-04T01:58:43.413Z,32.88
2022-11-04T01:59:46.151Z,33.13
2022-11-04T02:00:48.496Z,33.16
2022-11-04T02:01:50.321Z,32.45
2022-11-04T02:03:12.545Z,33.27
2022-11-04T02:04:27.528Z,33.19
2022-11-04T02:05:30.873Z,32.88
2022-11-04T02:06:32.702Z,32.90
2022-11-04T02:07:34.985Z,32.95
2022-11-04T02:08:38.462Z,32.81
2022-11-04T02:09:42.000Z,33.24
2022-11-04T02:10:52.249Z,32.75
2022-11-04T02:12:12.809Z,32.34
2022-11-04T02:13:14.574Z,32.87
2022-11-04T02:14:17.148Z,32.64
2022-11-04T02:15:31.921Z,33.31
2022-11-04T02:16:40.260Z,32.73
2022-11-04T02:18:03.235Z,33.23
2022-11-04T02:19:30.810Z,32.96
2022-11-04T02:21:00.002Z,32.17
2022-11-04T02:22:10.837Z,32.47
2022-11-04T02:23:36.130Z,32.32
2022-11-04T02:24:56.496Z,33.11
2022-11-04T02:26:17.726Z,32.85
2022-11-04T02:27:25.461Z,32.35
2022-11-04T02:28:51.145Z,32.79
2022-11-04T02:30:19.682Z,32.22
2022-11-04T02:31:33.758Z,33.08
2022-11-04T02:32:44.644Z,32.59
2022-11-04T02:34:07.709Z,32.34
2022-11-04T02:35:44.518Z,32.84
2022-11-04T02:37:28.212Z,32.46
2022-11-04T02:38:37.189Z,32.43
2022-11-04T02:40:09.893Z,32.37
2022-11-04T02:41:57.858Z,32.80
2022-11-04T02:43:20.693Z,32.68
2022-11-04T02:44:33.433Z,32.32
2022-11-04T02:45:48.100Z,32.74
2022-11-04T02:46:51.976Z,32.37
2022-11-04T02:48:28.893Z,32.76
2022-11-04T02:49:40.988Z,32.62
2022-11-04T02:50:53.320Z,32.49
2022-11-04T02:52:13.723Z,32.79
2022-11-04T02:53:23.670Z,32.74
2022-11-04T02:54:36.405Z,32.52
2022-11-04T02:55:42.332Z,33.03
2022-11-04T02:56:52.597Z,32.55
2022-11-04T02:57:58.586Z,33.33
2022-11-04T02:59:39.451Z,32.69
2022-11-04T03:00:43.527Z,32.91
2022-11-04T03:01:49.047Z,32.67
2022-11-04T03:02:59.311Z,32.91
2022-11-04T03:04:09.289Z,32.91
2022-11-04T03:05:17.121Z,32.92
2022-11-04T03:06:23.796Z,32.56
2022-11-04T03:07:30.633Z,33.12
2022-11-04T03:08:40.048Z,33.00
2022-11-04T03:09:44.567Z,33.01
2022-11-04T03:10:59.066Z,33.33
2022-11-04T03:12:07.616Z,33.03
2022-11-04T03:13:13.452Z,32.96
2022-11-04T03:14:21.063Z,33.02
2022-11-04T03:15:31.607Z,32.91
2022-11-04T03:16:50.484Z,32.93
2022-11-04T03:18:00.564Z,32.49
2022-11-04T03:19:29.836Z,32.40
2022-11-04T03:20:31.823Z,32.98
2022-11-04T03:21:39.122Z,32.81
2022-11-04T03:22:41.016Z,32.43
2022-11-04T03:23:43.253Z,33.18
2022-11-04T03:24:47.423Z,32.94
2022-11-04T03:25:54.910Z,32.88
2022-11-04T03:27:03.081Z,32.68
2022-11-04T03:28:36.824Z,32.41
2022-11-04T03:30:13.771Z,33.01
2022-11-04T03:31:29.569Z,32.79
2022-11-04T03:32:40.162Z,33.08
2022-11-04T03:33:50.525Z,32.92
2022-11-04T03:34:52.639Z,32.36
2022-11-04T03:35:54.590Z,33.07
2022-11-04T03:36:56.859Z,32.83
2022-11-04T03:37:59.128Z,32.41
2022-11-04T03:39:00.945Z,33.27
2022-11-04T03:40:04.350Z,32.67
2022-11-04T03:41:15.122Z,32.96
2022-11-04T03:42:22.204Z,32.96
2022-11-04T03:43:29.188Z,32.78
2022-11-04T03:44:31.034Z,33.18
2022-11-04T03:45:32.808Z,32.98
2022-11-04T03:46:34.867Z,32.46
2022-11-04T03:47:37.378Z,32.70
2022-11-04T03:48:39.312Z,32.66
2022-11-04T03:49:41.214Z,32.60
2022-11-04T03:50:47.696Z,33.08
2022-11-04T03:51:52.014Z,32.48
2022-11-04T03:52:53.906Z,32.91
2022-11-04T03:53:56.633Z,32.73
2022-11-04T03:54:58.344Z,33.27
2022-11-04T03:56:22.769Z,33.31
2022-11-04T03:58:06.818Z,32.39
2022-11-04T03:59:14.674Z,32.95
2022-11-04T04:00:22.438Z,32.79
2022-11-04T04:01:39.412Z,32.80
2022-11-04T04:02:59.993Z,32.77
2022-11-04T04:04:17.411Z,32.76
2022-11-04T04:05:36.459Z,32.90
2022-11-04T04:06:39.798Z,33.08
2022-11-04T04:07:50.761Z,32.54
2022-11-04T04:08:56.418Z,32.66
2022-11-04T04:10:26.307Z,32.77
2022-11-04T04:11:51.902Z,32.62
2022-11-04T04:12:58.685Z,33.08
2022-11-04T04:14:03.392Z,32.32
2022-11-04T04:15:13.379Z,32.41
2022-11-04T04:16:45.880Z,32.26
2022-11-04T04:17:55.338Z,32.38
2022-11-04T04:19:35.972Z,32.79
2022-11-04T04:20:39.314Z,32.85
2022-11-04T04:21:54.216Z,32.66
2022-11-04T04:23:02.056Z,32.72
2022-11-04T04:24:26.022Z,32.63
2022-11-04T04:25:48.282Z,32.77
2022-11-04T04:27:10.486Z,32.83
2022-11-04T04:28:15.062Z,32.72
2022-11-04T04:29:18.516Z,32.74
2022-11-04T04:30:20.337Z,32.61
2022-11-04T04:31:44.062Z,32.98
2022-11-04T04:32:53.018Z,32.70
2022-11-04T04:33:55.189Z,32.94
2022-11-04T04:35:17.195Z,32.65
2022-11-04T04:36:19.082Z,32.89
2022-11-04T04:37:23.100Z,33.34
2022-11-04T04:38:48.705Z,32.95
2022-11-04T04:40:22.061Z,32.97
2022-11-04T04:41:48.531Z,32.85
2022-11-04T04:43:11.561Z,32.68
2022-11-04T04:44:47.733Z,32.72
2022-11-04T04:45:53.845Z,33.07
2022-11-04T04:46:57.955Z,32.44
2022-11-04T04:47:59.854Z,32.72
2022-11-04T04:49:09.138Z,33.30
2022-11-04T04:50:15.137Z,32.65
2022-11-04T04:51:16.957Z,32.77
2022-11-04T04:52:19.628Z,32.59
2022-11-04T04:53:21.388Z,33.31
2022-11-04T04:54:23.085Z,32.85
2022-11-04T04:55:24.869Z,32.99
2022-11-04T04:56:26.557Z,32.93
2022-11-04T04:57:28.362Z,33.15
2022-11-04T04:58:30.048Z,32.80
2022-11-04T04:59:31.726Z,33.40
2022-11-04T05:00:33.621Z,33.50
2022-11-04T05:01:35.599Z,33.09
2022-11-04T05:02:37.516Z,33.28
2022-11-04T05:03:44.817Z,32.73
2022-11-04T05:04:46.926Z,32.90
2022-11-04T05:05:48.686Z,33.17
2022-11-04T05:06:50.501Z,33.00
2022-11-04T05:07:52.253Z,32.99
2022-11-04T05:08:53.924Z,33.00
2022-11-04T05:09:55.811Z,33.21
2022-11-04T05:10:59.473Z,32.60
2022-11-04T05:12:01.168Z,33.39
2022-11-04T05:13:21.442Z,33.02
2022-11-04T05:14:23.133Z,33.30
2022-11-04T05:15:25.988Z,33.11
2022-11-04T05:16:27.682Z,33.16
2022-11-04T05:17:29.341Z,33.42
2022-11-04T05:18:31.144Z,32.79
2022-11-04T05:19:32.926Z,32.93
2022-11-04T05:20:38.524Z,32.99
2022-11-04T05:21:40.248Z,32.76
2022-11-04T05:22:41.937Z,32.86
2022-11-04T05:23:43.938Z,32.70
2022-11-04T05:24:45.701Z,33.16
2022-11-04T05:25:47.409Z,33.29
2022-11-04T05:26:49.106Z,33.30
2022-11-04T05:27:50.835Z,33.28
2022-11-04T05:28:52.523Z,32.99
2022-11-04T05:29:54.192Z,33.36
2022-11-04T05:30:56.023Z,32.63
2022-11-04T05:31:57.740Z,33.21
2022-11-04T05:33:03.404Z,32.79
2022-11-04T05:34:06.918Z,33.10
2022-11-04T05:35:08.826Z,33.09
2022-11-04T05:36:16.001Z,33.18
2022-11-04T05:37:17.683Z,33.14
2022-11-04T05:38:19.884Z,33.04
2022-11-04T05:39:21.636Z,32.95
2022-11-04T05:40:24.538Z,33.15
2022-11-04T05:41:26.345Z,33.08
2022-11-04T05:42:29.538Z,33.01
2022-11-04T05:43:31.427Z,33.20
2022-11-04T05:44:33.154Z,33.13
2022-11-04T05:45:34.869Z,33.48
2022-11-04T05:46:36.643Z,33.49
2022-11-04T05:47:38.495Z,32.70
2022-11-04T05:48:40.622Z,33.20
2022-11-04T05:49:42.664Z,32.92
2022-11-04T05:50:44.776Z,33.33
2022-11-04T05:51:46.945Z,32.68
2022-11-04T05:52:48.621Z,32.89
2022-11-04T05:53:50.892Z,32.80
2022-11-04T05:54:52.608Z,33.06
2022-11-04T05:55:54.308Z,32.82
2022-11-04T05:56:56.009Z,32.68
2022-11-04T05:58:00.596Z,32.97
2022-11-04T05:59:02.358Z,33.05
2022-11-04T06:00:04.837Z,33.41
2022-11-04T06:01:28.598Z,32.84
2022-11-04T06:02:30.503Z,32.69
2022-11-04T06:03:32.330Z,33.20
2022-11-04T06:04:33.997Z,32.94
2022-11-04T06:05:35.681Z,33.02
2022-11-04T06:06:38.953Z,33.38
2022-11-04T06:07:40.652Z,33.32
2022-11-04T06:08:45.192Z,33.39
2022-11-04T06:09:47.230Z,33.23
2022-11-04T06:10:48.909Z,33.34
2022-11-04T06:11:51.412Z,33.31
2022-11-04T06:12:53.141Z,32.92
2022-11-04T06:13:56.400Z,32.88
2022-11-04T06:14:58.181Z,33.00
2022-11-04T06:15:59.946Z,33.05
2022-11-04T06:17:02.353Z,33.11
2022-11-04T06:18:04.118Z,32.93
2022-11-04T06:19:09.586Z,32.95
2022-11-04T06:20:13.786Z,32.52
2022-11-04T06:21:15.852Z,33.33
2022-11-04T06:22:19.780Z,33.20
2022-11-04T06:23:21.453Z,33.16
2022-11-04T06:24:23.220Z,32.89
2022-11-04T06:25:24.882Z,33.01
2022-11-04T06:26:28.550Z,33.02
2022-11-04T06:27:30.439Z,32.50
2022-11-04T06:28:32.681Z,32.53
2022-11-04T06:29:34.810Z,32.20
2022-11-04T06:30:36.490Z,32.59
2022-11-04T06:31:38.689Z,32.47
2022-11-04T06:32:40.409Z,32.59
2022-11-04T06:33:42.650Z,32.45
2022-11-04T06:34:45.404Z,31.93
2022-11-04T06:35:47.110Z,32.14
2022-11-04T06:36:49.812Z,31.85
2022-11-04T06:37:51.593Z,31.92
2022-11-04T06:38:53.294Z,31.72
2022-11-04T06:39:55.342Z,31.51
2022-11-04T06:40:57.794Z,31.70
2022-11-04T06:42:01.401Z,31.47
2022-11-04T06:43:04.432Z,32.05
2022-11-04T06:44:06.160Z,31.56
2022-11-04T06:45:08.577Z,31.35
2022-11-04T06:46:43.431Z,31.90
2022-11-04T06:47:45.101Z,31.48
2022-11-04T06:48:46.828Z,31.68
2022-11-04T06:49:48.517Z,31.47
2022-11-04T06:50:50.352Z,31.77
2022-11-04T06:51:52.268Z,31.64
2022-11-04T06:52:53.941Z,31.75
2022-11-04T06:53:55.670Z,31.19
2022-11-04T06:54:57.487Z,31.28
2022-11-04T06:56:04.223Z,31.69
2022-11-04T06:57:05.913Z,31.08
2022-11-04T06:58:07.634Z,31.09
2022-11-04T06:59:15.821Z,30.92
2022-11-04T07:00:18.246Z,31.05
2022-11-04T07:01:22.548Z,31.40
2022-11-04T07:02:24.581Z,31.40
2022-11-04T07:03:27.625Z,31.11
2022-11-04T07:04:29.291Z,30.75
2022-11-04T07:05:33.550Z,31.04
2022-11-04T07:06:37.277Z,30.93
2022-11-04T07:07:41.449Z,30.63
2022-11-04T07:08:43.181Z,31.19
2022-11-04T07:09:44.879Z,30.94
2022-11-04T07:10:46.537Z,31.24
2022-11-04T07:11:48.348Z,31.05
2022-11-04T07:12:50.133Z,31.04
2022-11-04T07:13:52.223Z,30.66
2022-11-04T07:14:55.725Z,31.04
2022-11-04T07:15:58.065Z,30.90
2022-11-04T07:16:59.833Z,30.77
2022-11-04T07:18:01.551Z,30.67
2022-11-04T07:19:04.141Z,30.76
2022-11-04T07:20:06.545Z,30.59
2022-11-04T07:21:10.207Z,30.85
2022-11-04T07:22:12.210Z,30.48
2022-11-04T07:23:13.886Z,30.46
2022-11-04T07:24:16.092Z,30.40
2022-11-04T07:25:17.810Z,30.99
2022-11-04T07:26:19.671Z,31.11
2022-11-04T07:27:21.520Z,30.49
2022-11-04T07:28:23.273Z,30.29
2022-11-04T07:29:25.556Z,30.83
2022-11-04T07:30:27.716Z,31.07
2022-11-04T07:31:29.536Z,30.48
2022-11-04T07:32:31.269Z,30.89
2022-11-04T07:33:33.923Z,30.83
2022-11-04T07:34:35.632Z,31.02
2022-11-04T07:35:37.455Z,30.56
2022-11-04T07:36:39.197Z,30.51
2022-11-04T07:37:41.119Z,30.59
2022-11-04T07:38:43.356Z,30.87
2022-11-04T07:40:46.765Z,31.01
2022-11-04T07:41:48.501Z,30.95
2022-11-04T07:42:50.178Z,30.40
2022-11-04T07:43:53.554Z,30.43
2022-11-04T07:44:55.306Z,30.61
2022-11-04T07:47:06.333Z,31.01
2022-11-04T07:48:09.189Z,30.63
2022-11-04T07:49:11.275Z,30.93
2022-11-04T07:50:13.642Z,30.64
2022-11-04T07:51:17.774Z,31.00
2022-11-04T07:52:19.532Z,30.88
2022-11-04T07:53:21.329Z,30.28
2022-11-04T07:54:23.009Z,30.18
2022-11-04T07:55:24.765Z,30.60
2022-11-04T07:56:27.198Z,30.74
2022-11-04T07:57:29.381Z,30.33
2022-11-04T07:58:31.620Z,30.74
2022-11-04T07:59:33.822Z,30.41
2022-11-04T08:00:35.492Z,30.91
2022-11-04T08:01:37.333Z,30.55
2022-11-04T08:02:39.173Z,31.01
2022-11-04T08:03:41.192Z,30.53
2022-11-04T08:04:43.226Z,30.42
2022-11-04T08:05:44.889Z,30.27
2022-11-04T08:06:46.613Z,30.55
2022-11-04T08:07:48.281Z,30.96
2022-11-04T08:08:50.291Z,30.38
2022-11-04T08:09:52.133Z,30.95
2022-11-04T08:10:57.046Z,31.02
2022-11-04T08:11:58.943Z,30.88
2022-11-04T08:13:00.669Z,30.55
2022-11-04T08:14:05.571Z,30.38
2022-11-04T08:15:07.826Z,30.29
2022-11-04T08:16:18.431Z,30.42
2022-11-04T08:17:20.334Z,30.51
2022-11-04T08:18:22.134Z,30.52
2022-11-04T08:19:24.126Z,30.56
2022-11-04T08:20:25.841Z,30.68
2022-11-04T08:21:31.734Z,30.44
2022-11-04T08:22:34.626Z,30.18
2022-11-04T08:23:36.742Z,30.41
2022-11-04T08:24:38.435Z,30.42
2022-11-04T08:25:40.116Z,30.34
2022-11-04T08:26:42.287Z,30.83
2022-11-04T08:27:44.092Z,30.53
2022-11-04T08:28:46.394Z,30.19
2022-11-04T08:29:48.095Z,30.31
2022-11-04T08:30:58.800Z,30.26
2022-11-04T08:32:00.739Z,30.52
2022-11-04T08:33:02.491Z,30.75
2022-11-04T08:34:06.157Z,30.46
2022-11-04T08:35:09.285Z,30.47
2022-11-04T08:36:18.110Z,30.79
2022-11-04T08:37:19.821Z,30.67
2022-11-04T08:38:21.814Z,30.75
2022-11-04T08:39:24.519Z,30.80
2022-11-04T08:40:26.210Z,30.80
2022-11-04T08:41:30.872Z,30.54
2022-11-04T08:42:32.552Z,30.47
2022-11-04T08:43:35.140Z,30.33
2022-11-04T08:44:39.335Z,30.75
2022-11-04T08:45:46.100Z,30.19
2022-11-04T08:46:48.553Z,30.13
2022-11-04T08:47:50.437Z,30.50
2022-11-04T08:48:52.229Z,30.87
2022-11-04T08:49:53.937Z,30.41
2022-11-04T08:50:59.137Z,30.63
2022-11-04T08:52:01.954Z,29.87
2022-11-04T08:53:05.116Z,30.34
2022-11-04T08:54:07.029Z,30.37
2022-11-04T08:55:09.990Z,30.67
2022-11-04T08:56:17.401Z,30.08
2022-11-04T08:57:19.086Z,30.44
2022-11-04T08:58:22.085Z,30.26
2022-11-04T08:59:25.226Z,30.42
2022-11-04T09:00:27.313Z,30.41
2022-11-04T09:01:35.325Z,30.46
2022-11-04T09:02:37.696Z,30.17
2022-11-04T09:03:41.428Z,30.51
2022-11-04T09:04:43.276Z,30.31
2022-11-04T09:05:46.845Z,30.58
2022-11-04T09:06:50.986Z,29.94
2022-11-04T09:07:52.878Z,30.50
2022-11-04T09:09:02.522Z,30.45
2022-11-04T09:10:06.092Z,30.39
2022-11-04T09:11:10.132Z,30.56
2022-11-04T09:12:12.077Z,30.16
2022-11-04T09:13:15.951Z,29.93
2022-11-04T09:14:18.024Z,30.07
2022-11-04T09:15:19.913Z,29.98
2022-11-04T09:16:21.650Z,30.38
2022-11-04T09:17:23.790Z,30.48
2022-11-04T09:18:25.521Z,29.99
2022-11-04T09:19:27.357Z,30.30
2022-11-04T09:20:29.134Z,30.21
2022-11-04T09:21:31.253Z,30.70
2022-11-04T09:22:33.016Z,30.31
2022-11-04T09:23:35.071Z,30.48
2022-11-04T09:24:36.790Z,30.57
2022-11-04T09:25:38.573Z,30.32
2022-11-04T09:26:40.360Z,30.54
2022-11-04T09:27:42.166Z,29.90
2022-11-04T09:28:44.442Z,30.33
2022-11-04T09:29:46.257Z,29.94
2022-11-04T09:30:48.018Z,30.29
2022-11-04T09:31:50.329Z,30.18
2022-11-04T09:32:52.967Z,29.72
2022-11-04T09:33:55.779Z,29.91
2022-11-04T09:34:57.686Z,30.05
2022-11-04T09:35:59.570Z,29.89
2022-11-04T09:37:01.565Z,30.44
2022-11-04T09:39:05.536Z,29.70
2022-11-04T09:40:08.167Z,29.91
2022-11-04T09:41:29.934Z,29.90
2022-11-04T09:42:46.971Z,30.31
2022-11-04T09:44:14.757Z,29.59
2022-11-04T09:45:23.248Z,29.64
2022-11-04T09:46:27.124Z,29.69
2022-11-04T09:47:32.304Z,29.70
2022-11-04T09:48:50.803Z,29.73
2022-11-04T09:49:58.213Z,30.00
2022-11-04T09:51:04.155Z,30.38
2022-11-04T09:52:16.065Z,30.03
2022-11-04T09:53:22.805Z,30.26
2022-11-04T09:54:47.246Z,29.82
2022-11-04T09:55:55.102Z,29.58
2022-11-04T09:56:59.526Z,29.64
2022-11-04T09:58:01.435Z,30.35
2022-11-04T09:59:04.748Z,30.13
2022-11-04T10:00:08.395Z,30.20
2022-11-04T10:01:39.026Z,29.81
2022-11-04T10:03:09.337Z,29.90
2022-11-04T10:04:52.263Z,29.90
2022-11-04T10:06:00.031Z,29.77
2022-11-04T10:07:40.117Z,29.56
2022-11-04T10:09:03.212Z,30.24
2022-11-04T10:10:24.792Z,29.87
2022-11-04T10:11:47.501Z,30.16
2022-11-04T10:13:12.540Z,29.91
2022-11-04T10:14:38.168Z,29.74
2022-11-04T10:16:05.646Z,30.10
2022-11-04T10:17:44.932Z,29.34
2022-11-04T10:18:57.789Z,29.70
2022-11-04T10:20:20.727Z,29.48
2022-11-04T10:21:40.603Z,29.81
2022-11-04T10:22:51.446Z,29.48
2022-11-04T10:24:06.189Z,30.30
2022-11-04T10:25:15.197Z,29.67
2022-11-04T10:26:25.049Z,29.89
2022-11-04T10:27:35.086Z,29.82
2022-11-04T10:28:48.737Z,30.07
2022-11-04T10:29:57.195Z,30.03
2022-11-04T10:31:00.293Z,29.67
2022-11-04T10:32:10.976Z,29.45
2022-11-04T10:33:26.357Z,30.00
2022-11-04T10:34:36.793Z,29.88
2022-11-04T10:35:42.887Z,29.51
2022-11-04T10:36:48.178Z,29.78
2022-11-04T10:37:53.698Z,30.30
2022-11-04T10:38:56.387Z,29.79
2022-11-04T10:40:32.277Z,29.93
2022-11-04T10:41:35.741Z,29.33
2022-11-04T10:42:37.433Z,29.96
2022-11-04T10:43:40.907Z,29.37
2022-11-04T10:44:43.924Z,29.48
2022-11-04T10:46:08.918Z,29.91
2022-11-04T10:47:44.178Z,29.99
2022-11-04T10:48:55.065Z,29.66
2022-11-04T10:50:26.595Z,29.88
2022-11-04T10:51:22.184Z,30.08
2022-11-04T10:52:24.860Z,29.67
2022-11-04T10:53:30.319Z,29.83
2022-11-04T10:54:40.535Z,30.01
2022-11-04T10:56:03.213Z,29.42
2022-11-04T10:57:04.976Z,29.86
2022-11-04T10:58:17.089Z,29.29
2022-11-04T10:59:51.657Z,29.85
2022-11-04T11:00:54.704Z,29.42
2022-11-04T11:02:02.018Z,30.05
2022-11-04T11:03:22.150Z,29.50
2022-11-04T11:04:37.099Z,29.39
2022-11-04T11:05:39.377Z,29.77
2022-11-04T11:06:41.777Z,29.23
2022-11-04T11:07:57.898Z,29.22
2022-11-04T11:09:13.063Z,29.53
2022-11-04T11:10:24.077Z,29.46
2022-11-04T11:11:49.113Z,29.28
2022-11-04T11:13:01.754Z,29.59
2022-11-04T11:14:03.542Z,29.53
2022-11-04T11:15:23.657Z,29.61
2022-11-04T11:16:30.437Z,29.45
2022-11-04T11:17:35.101Z,29.65
2022-11-04T11:18:38.504Z,29.76
2022-11-04T11:19:53.256Z,29.95
2022-11-04T11:21:16.052Z,29.67
2022-11-04T11:22:31.805Z,29.46
2022-11-04T11:23:33.517Z,29.82
2022-11-04T11:24:35.987Z,29.33
2022-11-04T11:25:45.287Z,29.36
2022-11-04T11:26:50.877Z,29.43
2022-11-04T11:28:02.774Z,29.74
2022-11-04T11:29:11.682Z,29.53
2022-11-04T11:30:22.080Z,29.94
2022-11-04T11:31:26.936Z,29.66
2022-11-04T11:32:36.084Z,29.99
2022-11-04T11:33:45.570Z,29.25
2022-11-04T11:34:48.978Z,30.01
2022-11-04T11:35:53.214Z,29.27
2022-11-04T11:36:56.997Z,29.86
2022-11-04T11:38:01.360Z,29.62
2022-11-04T11:39:12.395Z,29.92
2022-11-04T11:40:32.178Z,29.96
2022-11-04T11:41:52.934Z,29.38
2022-11-04T11:42:56.585Z,29.49
2022-11-04T11:44:06.116Z,29.70
2022-11-04T11:45:16.784Z,29.61
2022-11-04T11:46:26.584Z,30.13
2022-11-04T11:47:28.401Z,30.17
2022-11-04T11:48:32.767Z,30.20
2022-11-04T11:49:37.142Z,29.94
2022-11-04T11:50:53.974Z,29.58
2022-11-04T11:51:56.564Z,29.99
2022-11-04T11:53:15.000Z,30.16
2022-11-04T11:54:26.006Z,29.50
2022-11-04T11:55:34.996Z,29.55
2022-11-04T11:57:11.394Z,29.97
2022-11-04T12:01:25.174Z,30.09
2022-11-04T12:02:35.701Z,30.01
2022-11-04T12:10:51.956Z,29.72
2022-11-04T12:12:35.548Z,30.04
2022-11-04T12:13:52.438Z,29.51
2022-11-04T12:15:05.349Z,29.88
2022-11-04T12:16:33.305Z,30.04
2022-11-04T12:17:46.785Z,29.43
2022-11-04T12:19:26.402Z,30.29
2022-11-04T12:20:33.328Z,29.42
2022-11-04T12:21:48.859Z,29.89
2022-11-04T12:23:05.399Z,30.09
2022-11-04T12:24:29.266Z,30.10
2022-11-04T12:25:36.733Z,29.54
2022-11-04T12:26:53.013Z,30.11
2022-11-04T12:28:09.790Z,30.34
2022-11-04T12:29:17.143Z,30.02
2022-11-04T12:30:29.039Z,29.66
2022-11-04T12:31:40.277Z,29.89
2022-11-04T12:32:53.844Z,29.90
2022-11-04T12:34:05.547Z,29.69
2022-11-04T12:35:38.457Z,29.64
2022-11-04T12:36:45.786Z,29.71
2022-11-04T12:38:27.478Z,29.93
2022-11-04T12:39:43.167Z,29.78
2022-11-04T12:41:41.867Z,30.07
2022-11-04T12:43:12.928Z,30.16
2022-11-04T12:44:23.761Z,29.64
2022-11-04T12:45:50.546Z,29.66
2022-11-04T12:47:27.888Z,30.10
2022-11-04T12:49:07.211Z,29.82
2022-11-04T12:50:43.692Z,29.99
2022-11-04T12:51:48.095Z,29.58
2022-11-04T12:52:58.600Z,30.34
2022-11-04T12:54:09.210Z,29.84
2022-11-04T12:55:29.185Z,30.60
2022-11-04T12:56:39.624Z,29.88
2022-11-04T12:57:53.084Z,30.28
2022-11-04T12:59:25.237Z,30.33
2022-11-04T13:00:31.144Z,29.98
2022-11-04T13:01:39.181Z,30.00
2022-11-04T13:02:51.835Z,29.96
2022-11-04T13:04:04.832Z,30.55
2022-11-04T13:05:18.578Z,30.08
2022-11-04T13:06:27.479Z,30.71
2022-11-04T13:07:33.687Z,30.69
2022-11-04T13:08:49.901Z,29.95
2022-11-04T13:09:56.338Z,30.37
2022-11-04T13:11:25.979Z,30.58
2022-11-04T13:12:35.264Z,30.34
2022-11-04T13:13:39.276Z,30.31
2022-11-04T13:14:51.573Z,30.33
2022-11-04T13:15:58.457Z,30.39
2022-11-04T13:17:11.677Z,30.08
2022-11-04T13:18:19.177Z,29.91
2022-11-04T13:19:29.309Z,30.44
2022-11-04T13:20:40.278Z,29.86
2022-11-04T13:21:43.464Z,30.02
2022-11-04T13:22:51.790Z,29.99
2022-11-04T13:24:12.305Z,30.01
2022-11-04T13:25:16.688Z,29.90
2022-11-04T13:26:18.815Z,30.16
2022-11-04T13:27:27.041Z,30.46
2022-11-04T13:28:28.852Z,30.05
2022-11-04T13:29:34.605Z,29.90
2022-11-04T13:30:39.710Z,30.72
2022-11-04T13:31:52.432Z,29.96
2022-11-04T13:33:10.763Z,30.48
2022-11-04T13:34:23.097Z,30.14
2022-11-04T13:35:40.284Z,30.53
2022-11-04T13:36:47.605Z,30.46
2022-11-04T13:37:58.364Z,29.90
2022-11-04T13:39:13.719Z,30.25
2022-11-04T13:40:24.914Z,30.26
2022-11-04T13:41:45.058Z,29.87
2022-11-04T13:43:21.632Z,30.20
2022-11-04T13:44:30.831Z,30.12
2022-11-04T13:45:32.640Z,29.71
2022-11-04T13:46:35.021Z,29.53
2022-11-04T13:47:45.481Z,30.29
2022-11-04T13:49:06.094Z,30.34
2022-11-04T13:50:27.339Z,30.04
2022-11-04T13:52:03.213Z,30.15
2022-11-04T13:53:09.480Z,30.06
2022-11-04T13:54:34.978Z,29.99
2022-11-04T13:56:14.778Z,29.95
2022-11-04T13:57:27.454Z,29.88
2022-11-04T13:58:29.547Z,30.37
2022-11-04T13:59:32.164Z,30.48
2022-11-04T14:00:37.466Z,30.63
2022-11-04T14:01:39.361Z,30.21
2022-11-04T14:02:44.786Z,30.90
2022-11-04T14:04:01.276Z,30.12
2022-11-04T14:05:29.017Z,30.75
2022-11-04T14:06:51.070Z,29.99
2022-11-04T14:08:02.066Z,30.07
2022-11-04T14:09:31.202Z,30.01
2022-11-04T14:10:48.105Z,30.01
2022-11-04T14:12:11.472Z,29.89
2022-11-04T14:13:28.655Z,30.48
2022-11-04T14:14:30.563Z,30.49
2022-11-04T14:16:00.100Z,30.30
2022-11-04T14:17:04.510Z,30.13
2022-11-04T14:18:27.485Z,30.15
2022-11-04T14:19:47.859Z,29.75
2022-11-04T14:21:04.580Z,30.27
2022-11-04T14:22:08.145Z,30.15
2022-11-04T14:23:23.465Z,30.31
2022-11-04T14:24:28.590Z,29.91
2022-11-04T14:25:34.940Z,29.99
2022-11-04T14:26:45.467Z,29.94
2022-11-04T14:27:49.837Z,30.32
2022-11-04T14:29:05.191Z,30.38
2022-11-04T14:30:27.569Z,30.06
2022-11-04T14:31:40.742Z,30.30
2022-11-04T14:32:42.637Z,30.25
2022-11-04T14:33:53.758Z,30.06
2022-11-04T14:35:02.204Z,30.11
2022-11-04T14:36:25.512Z,29.94
2022-11-04T14:37:32.645Z,30.08
2022-11-04T14:38:34.576Z,30.31
2022-11-04T14:39:40.250Z,30.10
2022-11-04T14:40:52.352Z,29.78
2022-11-04T14:42:01.888Z,29.68
2022-11-04T14:43:04.326Z,29.91
2022-11-04T14:44:18.502Z,29.87
2022-11-04T14:45:27.310Z,29.44
2022-11-04T14:46:34.521Z,30.35
2022-11-04T14:47:38.048Z,29.74
2022-11-04T14:48:51.817Z,29.61
2022-11-04T14:49:59.672Z,30.15
2022-11-04T14:51:01.574Z,30.01
2022-11-04T14:52:03.588Z,29.81
2022-11-04T14:53:06.285Z,29.74
2022-11-04T14:54:20.924Z,29.58